sensor_id;sensor_type;location;lat;lon;timestamp;P1;durP1;ratioP1;P2;durP2;ratioP2
23728;SDS011;12045;60.214;24.724;2023-04-09T00:01:10;4.13;;;2.15;;
23728;SDS011;12045;60.214;24.724;2023-04-09T00:03:38;4.07;;;2.28;;
23728;SDS011;12045;60.214;24.724;2023-04-09T00:06:10;3.03;;;2.13;;
23728;SDS011;12045;60.214;24.724;2023-04-09T00:08:38;3.57;;;2.40;;
23728;SDS011;12045;60.214;24.724;2023-04-09T00:11:05;3.40;;;2.40;;
23728;SDS011;12045;60.214;24.724;2023-04-09T00:13:33;3.42;;;2.42;;
23728;SDS011;12045;60.214;24.724;2023-04-09T00:16:06;3.75;;;2.42;;
23728;SDS011;12045;60.214;24.724;2023-04-09T00:18:34;4.00;;;2.70;;
23728;SDS011;12045;60.214;24.724;2023-04-09T00:21:02;2.73;;;1.97;;
23728;SDS011;12045;60.214;24.724;2023-04-09T00:23:29;4.15;;;2.72;;
23728;SDS011;12045;60.214;24.724;2023-04-09T00:25:57;4.45;;;2.38;;
23728;SDS011;12045;60.214;24.724;2023-04-09T00:28:24;3.25;;;2.20;;
23728;SDS011;12045;60.214;24.724;2023-04-09T00:30:52;3.57;;;2.50;;
23728;SDS011;12045;60.214;24.724;2023-04-09T00:33:19;2.30;;;1.83;;
23728;SDS011;12045;60.214;24.724;2023-04-09T00:35:47;5.00;;;2.25;;
23728;SDS011;12045;60.214;24.724;2023-04-09T00:38:14;4.38;;;2.50;;
23728;SDS011;12045;60.214;24.724;2023-04-09T00:40:42;3.92;;;2.33;;
23728;SDS011;12045;60.214;24.724;2023-04-09T00:43:09;3.83;;;2.43;;
23728;SDS011;12045;60.214;24.724;2023-04-09T00:45:38;5.03;;;2.20;;
23728;SDS011;12045;60.214;24.724;2023-04-09T00:48:05;4.10;;;2.20;;
23728;SDS011;12045;60.214;24.724;2023-04-09T00:50:33;4.28;;;2.60;;
23728;SDS011;12045;60.214;24.724;2023-04-09T00:53:01;3.87;;;2.40;;
23728;SDS011;12045;60.214;24.724;2023-04-09T00:55:28;5.70;;;2.50;;
23728;SDS011;12045;60.214;24.724;2023-04-09T00:57:56;2.70;;;2.10;;
23728;SDS011;12045;60.214;24.724;2023-04-09T01:00:24;4.07;;;2.10;;
23728;SDS011;12045;60.214;24.724;2023-04-09T01:02:52;2.93;;;2.30;;
23728;SDS011;12045;60.214;24.724;2023-04-09T01:05:23;4.43;;;2.10;;
23728;SDS011;12045;60.214;24.724;2023-04-09T01:08:06;4.10;;;2.55;;
23728;SDS011;12045;60.214;24.724;2023-04-09T01:10:52;2.40;;;2.10;;
23728;SDS011;12045;60.214;24.724;2023-04-09T01:13:43;3.73;;;2.13;;
23728;SDS011;12045;60.214;24.724;2023-04-09T01:16:22;4.30;;;2.10;;
23728;SDS011;12045;60.214;24.724;2023-04-09T01:18:55;2.13;;;1.60;;
23728;SDS011;12045;60.214;24.724;2023-04-09T01:21:28;2.53;;;1.90;;
23728;SDS011;12045;60.214;24.724;2023-04-09T01:26:51;2.80;;;2.00;;
23728;SDS011;12045;60.214;24.724;2023-04-09T01:29:29;2.77;;;2.03;;
23728;SDS011;12045;60.214;24.724;2023-04-09T01:31:59;3.97;;;2.20;;
23728;SDS011;12045;60.214;24.724;2023-04-09T01:34:28;4.33;;;2.10;;
23728;SDS011;12045;60.214;24.724;2023-04-09T01:36:57;5.33;;;2.10;;
23728;SDS011;12045;60.214;24.724;2023-04-09T01:39:28;5.67;;;2.77;;
23728;SDS011;12045;60.214;24.724;2023-04-09T01:41:56;3.67;;;2.40;;
23728;SDS011;12045;60.214;24.724;2023-04-09T01:44:23;3.53;;;2.23;;
23728;SDS011;12045;60.214;24.724;2023-04-09T01:46:52;3.63;;;2.30;;
23728;SDS011;12045;60.214;24.724;2023-04-09T01:49:21;2.80;;;2.07;;
23728;SDS011;12045;60.214;24.724;2023-04-09T01:51:50;3.03;;;2.20;;
23728;SDS011;12045;60.214;24.724;2023-04-09T01:54:17;5.07;;;2.30;;
23728;SDS011;12045;60.214;24.724;2023-04-09T01:56:45;3.33;;;2.00;;
23728;SDS011;12045;60.214;24.724;2023-04-09T01:59:14;4.47;;;2.17;;
23728;SDS011;12045;60.214;24.724;2023-04-09T02:01:58;3.43;;;2.00;;
23728;SDS011;12045;60.214;24.724;2023-04-09T02:04:32;2.87;;;2.10;;
23728;SDS011;12045;60.214;24.724;2023-04-09T02:09:38;3.33;;;2.33;;
23728;SDS011;12045;60.214;24.724;2023-04-09T02:12:09;2.80;;;2.27;;
23728;SDS011;12045;60.214;24.724;2023-04-09T02:14:39;3.30;;;2.30;;
23728;SDS011;12045;60.214;24.724;2023-04-09T02:17:08;3.43;;;2.53;;
23728;SDS011;12045;60.214;24.724;2023-04-09T02:19:42;4.80;;;2.30;;
23728;SDS011;12045;60.214;24.724;2023-04-09T02:22:11;3.03;;;2.30;;
23728;SDS011;12045;60.214;24.724;2023-04-09T02:24:39;2.90;;;2.10;;
23728;SDS011;12045;60.214;24.724;2023-04-09T02:27:07;2.87;;;2.10;;
23728;SDS011;12045;60.214;24.724;2023-04-09T02:29:34;2.60;;;1.80;;
23728;SDS011;12045;60.214;24.724;2023-04-09T02:32:02;4.00;;;2.10;;
23728;SDS011;12045;60.214;24.724;2023-04-09T02:34:30;2.63;;;2.13;;
23728;SDS011;12045;60.214;24.724;2023-04-09T02:36:57;5.00;;;2.47;;
23728;SDS011;12045;60.214;24.724;2023-04-09T02:39:24;3.27;;;2.33;;
23728;SDS011;12045;60.214;24.724;2023-04-09T02:41:53;3.93;;;2.27;;
23728;SDS011;12045;60.214;24.724;2023-04-09T02:44:20;2.53;;;2.10;;
23728;SDS011;12045;60.214;24.724;2023-04-09T02:46:49;5.30;;;2.20;;
23728;SDS011;12045;60.214;24.724;2023-04-09T02:49:18;3.17;;;2.00;;
23728;SDS011;12045;60.214;24.724;2023-04-09T02:51:45;2.87;;;2.10;;
23728;SDS011;12045;60.214;24.724;2023-04-09T02:54:13;3.27;;;2.10;;
23728;SDS011;12045;60.214;24.724;2023-04-09T02:56:40;2.57;;;2.07;;
23728;SDS011;12045;60.214;24.724;2023-04-09T02:59:08;3.17;;;2.07;;
23728;SDS011;12045;60.214;24.724;2023-04-09T03:01:35;2.83;;;2.03;;
23728;SDS011;12045;60.214;24.724;2023-04-09T03:04:03;4.67;;;2.00;;
23728;SDS011;12045;60.214;24.724;2023-04-09T03:06:30;3.27;;;2.27;;
23728;SDS011;12045;60.214;24.724;2023-04-09T03:08:58;4.43;;;2.00;;
23728;SDS011;12045;60.214;24.724;2023-04-09T03:11:25;4.93;;;2.30;;
23728;SDS011;12045;60.214;24.724;2023-04-09T03:13:53;3.80;;;2.63;;
23728;SDS011;12045;60.214;24.724;2023-04-09T03:16:23;3.57;;;2.33;;
23728;SDS011;12045;60.214;24.724;2023-04-09T03:18:50;4.00;;;2.20;;
23728;SDS011;12045;60.214;24.724;2023-04-09T03:21:18;3.47;;;2.30;;
23728;SDS011;12045;60.214;24.724;2023-04-09T03:23:46;5.40;;;2.27;;
23728;SDS011;12045;60.214;24.724;2023-04-09T03:26:14;3.43;;;2.07;;
23728;SDS011;12045;60.214;24.724;2023-04-09T03:28:42;4.03;;;2.03;;
23728;SDS011;12045;60.214;24.724;2023-04-09T03:31:09;3.40;;;2.17;;
23728;SDS011;12045;60.214;24.724;2023-04-09T03:33:37;2.80;;;2.10;;
23728;SDS011;12045;60.214;24.724;2023-04-09T03:36:04;2.60;;;1.93;;
23728;SDS011;12045;60.214;24.724;2023-04-09T03:38:32;3.07;;;2.10;;
23728;SDS011;12045;60.214;24.724;2023-04-09T03:40:59;3.57;;;1.87;;
23728;SDS011;12045;60.214;24.724;2023-04-09T03:43:27;2.33;;;1.90;;
23728;SDS011;12045;60.214;24.724;2023-04-09T03:45:54;3.60;;;2.20;;
23728;SDS011;12045;60.214;24.724;2023-04-09T03:48:21;3.60;;;2.00;;
23728;SDS011;12045;60.214;24.724;2023-04-09T03:50:49;2.93;;;2.17;;
23728;SDS011;12045;60.214;24.724;2023-04-09T03:53:19;3.23;;;2.10;;
23728;SDS011;12045;60.214;24.724;2023-04-09T03:55:46;2.60;;;2.13;;
23728;SDS011;12045;60.214;24.724;2023-04-09T03:58:14;3.57;;;2.20;;
23728;SDS011;12045;60.214;24.724;2023-04-09T04:00:41;2.97;;;2.00;;
23728;SDS011;12045;60.214;24.724;2023-04-09T04:03:10;4.57;;;2.30;;
23728;SDS011;12045;60.214;24.724;2023-04-09T04:05:38;3.03;;;1.50;;
23728;SDS011;12045;60.214;24.724;2023-04-09T04:08:05;2.73;;;1.73;;
23728;SDS011;12045;60.214;24.724;2023-04-09T04:10:33;4.20;;;2.20;;
23728;SDS011;12045;60.214;24.724;2023-04-09T04:13:00;2.70;;;2.03;;
23728;SDS011;12045;60.214;24.724;2023-04-09T04:15:28;2.67;;;1.90;;
23728;SDS011;12045;60.214;24.724;2023-04-09T04:17:56;3.10;;;2.20;;
23728;SDS011;12045;60.214;24.724;2023-04-09T04:20:25;2.90;;;1.77;;
23728;SDS011;12045;60.214;24.724;2023-04-09T04:22:52;3.33;;;2.00;;
23728;SDS011;12045;60.214;24.724;2023-04-09T04:25:20;3.00;;;2.00;;
23728;SDS011;12045;60.214;24.724;2023-04-09T04:27:47;3.33;;;2.23;;
23728;SDS011;12045;60.214;24.724;2023-04-09T04:30:14;2.43;;;1.83;;
23728;SDS011;12045;60.214;24.724;2023-04-09T04:32:42;5.30;;;2.33;;
23728;SDS011;12045;60.214;24.724;2023-04-09T04:35:09;5.83;;;2.27;;
23728;SDS011;12045;60.214;24.724;2023-04-09T04:37:37;3.40;;;2.33;;
23728;SDS011;12045;60.214;24.724;2023-04-09T04:40:04;3.20;;;2.40;;
23728;SDS011;12045;60.214;24.724;2023-04-09T04:42:32;4.27;;;1.87;;
23728;SDS011;12045;60.214;24.724;2023-04-09T04:45:00;2.40;;;1.77;;
23728;SDS011;12045;60.214;24.724;2023-04-09T04:47:27;2.37;;;2.10;;
23728;SDS011;12045;60.214;24.724;2023-04-09T04:49:55;3.67;;;2.00;;
23728;SDS011;12045;60.214;24.724;2023-04-09T04:52:22;3.57;;;2.17;;
23728;SDS011;12045;60.214;24.724;2023-04-09T04:54:50;4.60;;;2.10;;
23728;SDS011;12045;60.214;24.724;2023-04-09T04:57:17;3.43;;;2.23;;
23728;SDS011;12045;60.214;24.724;2023-04-09T04:59:45;3.90;;;2.40;;
23728;SDS011;12045;60.214;24.724;2023-04-09T05:02:12;3.30;;;2.33;;
23728;SDS011;12045;60.214;24.724;2023-04-09T05:04:40;3.77;;;2.53;;
23728;SDS011;12045;60.214;24.724;2023-04-09T05:07:07;4.07;;;2.40;;
23728;SDS011;12045;60.214;24.724;2023-04-09T05:09:35;3.90;;;2.50;;
23728;SDS011;12045;60.214;24.724;2023-04-09T05:12:02;2.97;;;2.40;;
23728;SDS011;12045;60.214;24.724;2023-04-09T05:14:30;6.57;;;2.40;;
23728;SDS011;12045;60.214;24.724;2023-04-09T05:16:57;3.17;;;2.13;;
23728;SDS011;12045;60.214;24.724;2023-04-09T05:19:25;3.50;;;2.60;;
23728;SDS011;12045;60.214;24.724;2023-04-09T05:21:53;6.20;;;2.20;;
23728;SDS011;12045;60.214;24.724;2023-04-09T05:24:20;4.63;;;2.50;;
23728;SDS011;12045;60.214;24.724;2023-04-09T05:26:48;3.50;;;2.50;;
23728;SDS011;12045;60.214;24.724;2023-04-09T05:29:16;4.17;;;2.60;;
23728;SDS011;12045;60.214;24.724;2023-04-09T05:31:43;3.23;;;2.10;;
23728;SDS011;12045;60.214;24.724;2023-04-09T05:34:11;3.40;;;2.40;;
23728;SDS011;12045;60.214;24.724;2023-04-09T05:36:38;4.18;;;2.20;;
23728;SDS011;12045;60.214;24.724;2023-04-09T05:39:06;2.03;;;1.17;;
23728;SDS011;12045;60.214;24.724;2023-04-09T05:41:33;3.22;;;2.53;;
23728;SDS011;12045;60.214;24.724;2023-04-09T05:44:03;3.10;;;2.20;;
23728;SDS011;12045;60.214;24.724;2023-04-09T05:46:30;4.10;;;2.37;;
23728;SDS011;12045;60.214;24.724;2023-04-09T05:48:58;2.78;;;1.95;;
23728;SDS011;12045;60.214;24.724;2023-04-09T05:51:25;3.07;;;2.20;;
23728;SDS011;12045;60.214;24.724;2023-04-09T05:53:53;4.00;;;2.58;;
23728;SDS011;12045;60.214;24.724;2023-04-09T05:56:20;3.40;;;1.88;;
23728;SDS011;12045;60.214;24.724;2023-04-09T05:58:50;5.22;;;2.35;;
23728;SDS011;12045;60.214;24.724;2023-04-09T06:01:18;2.78;;;2.00;;
23728;SDS011;12045;60.214;24.724;2023-04-09T06:03:46;6.05;;;2.30;;
23728;SDS011;12045;60.214;24.724;2023-04-09T06:06:15;3.50;;;2.20;;
23728;SDS011;12045;60.214;24.724;2023-04-09T06:08:43;4.90;;;2.58;;
23728;SDS011;12045;60.214;24.724;2023-04-09T06:11:11;3.08;;;2.10;;
23728;SDS011;12045;60.214;24.724;2023-04-09T06:13:39;3.40;;;2.30;;
23728;SDS011;12045;60.214;24.724;2023-04-09T06:16:07;2.65;;;1.90;;
23728;SDS011;12045;60.214;24.724;2023-04-09T06:18:35;3.22;;;2.30;;
23728;SDS011;12045;60.214;24.724;2023-04-09T06:21:07;3.15;;;2.13;;
23728;SDS011;12045;60.214;24.724;2023-04-09T06:23:35;3.33;;;2.10;;
23728;SDS011;12045;60.214;24.724;2023-04-09T06:26:03;4.38;;;2.22;;
23728;SDS011;12045;60.214;24.724;2023-04-09T06:28:30;4.95;;;2.33;;
23728;SDS011;12045;60.214;24.724;2023-04-09T06:30:59;2.10;;;1.83;;
23728;SDS011;12045;60.214;24.724;2023-04-09T06:33:26;3.00;;;2.00;;
23728;SDS011;12045;60.214;24.724;2023-04-09T06:35:54;3.03;;;2.00;;
23728;SDS011;12045;60.214;24.724;2023-04-09T06:38:22;3.30;;;2.10;;
23728;SDS011;12045;60.214;24.724;2023-04-09T06:40:49;5.15;;;1.83;;
23728;SDS011;12045;60.214;24.724;2023-04-09T06:43:17;5.85;;;2.00;;
23728;SDS011;12045;60.214;24.724;2023-04-09T06:45:45;3.13;;;2.20;;
23728;SDS011;12045;60.214;24.724;2023-04-09T06:48:13;4.75;;;2.00;;
23728;SDS011;12045;60.214;24.724;2023-04-09T06:50:40;3.47;;;1.85;;
23728;SDS011;12045;60.214;24.724;2023-04-09T06:53:07;2.95;;;1.92;;
23728;SDS011;12045;60.214;24.724;2023-04-09T06:55:35;2.25;;;1.65;;
23728;SDS011;12045;60.214;24.724;2023-04-09T06:58:02;3.00;;;2.05;;
23728;SDS011;12045;60.214;24.724;2023-04-09T07:00:30;5.20;;;1.90;;
23728;SDS011;12045;60.214;24.724;2023-04-09T07:02:57;2.58;;;2.05;;
23728;SDS011;12045;60.214;24.724;2023-04-09T07:05:25;6.93;;;2.20;;
23728;SDS011;12045;60.214;24.724;2023-04-09T07:07:53;4.10;;;1.98;;
23728;SDS011;12045;60.214;24.724;2023-04-09T07:10:20;3.28;;;1.75;;
23728;SDS011;12045;60.214;24.724;2023-04-09T07:12:48;5.43;;;1.52;;
23728;SDS011;12045;60.214;24.724;2023-04-09T07:15:15;2.40;;;1.77;;
23728;SDS011;12045;60.214;24.724;2023-04-09T07:17:42;2.97;;;1.70;;
23728;SDS011;12045;60.214;24.724;2023-04-09T07:20:10;3.60;;;1.50;;
23728;SDS011;12045;60.214;24.724;2023-04-09T07:22:38;5.18;;;1.92;;
23728;SDS011;12045;60.214;24.724;2023-04-09T07:25:05;1.95;;;1.60;;
23728;SDS011;12045;60.214;24.724;2023-04-09T07:27:33;2.35;;;1.75;;
23728;SDS011;12045;60.214;24.724;2023-04-09T07:30:01;2.50;;;1.60;;
23728;SDS011;12045;60.214;24.724;2023-04-09T07:32:29;2.83;;;1.65;;
23728;SDS011;12045;60.214;24.724;2023-04-09T07:34:57;3.22;;;1.60;;
23728;SDS011;12045;60.214;24.724;2023-04-09T07:37:25;3.33;;;1.70;;
23728;SDS011;12045;60.214;24.724;2023-04-09T07:39:53;2.58;;;1.40;;
23728;SDS011;12045;60.214;24.724;2023-04-09T07:42:20;2.25;;;1.60;;
23728;SDS011;12045;60.214;24.724;2023-04-09T07:44:48;3.47;;;1.80;;
23728;SDS011;12045;60.214;24.724;2023-04-09T07:47:15;4.07;;;1.40;;
23728;SDS011;12045;60.214;24.724;2023-04-09T07:49:43;4.18;;;1.73;;
23728;SDS011;12045;60.214;24.724;2023-04-09T07:52:10;2.08;;;1.40;;
23728;SDS011;12045;60.214;24.724;2023-04-09T07:54:37;3.72;;;1.60;;
23728;SDS011;12045;60.214;24.724;2023-04-09T07:57:05;3.35;;;1.50;;
23728;SDS011;12045;60.214;24.724;2023-04-09T07:59:33;2.95;;;1.40;;
23728;SDS011;12045;60.214;24.724;2023-04-09T08:02:00;2.22;;;1.30;;
23728;SDS011;12045;60.214;24.724;2023-04-09T08:04:28;1.88;;;1.50;;
23728;SDS011;12045;60.214;24.724;2023-04-09T08:06:56;1.92;;;1.27;;
23728;SDS011;12045;60.214;24.724;2023-04-09T08:09:23;2.63;;;1.15;;
23728;SDS011;12045;60.214;24.724;2023-04-09T08:11:51;2.50;;;1.60;;
23728;SDS011;12045;60.214;24.724;2023-04-09T08:14:19;4.65;;;1.45;;
23728;SDS011;12045;60.214;24.724;2023-04-09T08:16:47;3.88;;;1.27;;
23728;SDS011;12045;60.214;24.724;2023-04-09T08:19:16;1.52;;;1.20;;
23728;SDS011;12045;60.214;24.724;2023-04-09T08:21:45;5.10;;;1.42;;
23728;SDS011;12045;60.214;24.724;2023-04-09T08:24:16;2.50;;;1.52;;
23728;SDS011;12045;60.214;24.724;2023-04-09T08:26:44;2.22;;;1.70;;
23728;SDS011;12045;60.214;24.724;2023-04-09T08:29:11;2.28;;;1.40;;
23728;SDS011;12045;60.214;24.724;2023-04-09T08:31:40;2.28;;;1.25;;
23728;SDS011;12045;60.214;24.724;2023-04-09T08:34:08;3.20;;;1.80;;
23728;SDS011;12045;60.214;24.724;2023-04-09T08:36:36;3.17;;;1.45;;
23728;SDS011;12045;60.214;24.724;2023-04-09T08:39:04;2.25;;;1.52;;
23728;SDS011;12045;60.214;24.724;2023-04-09T08:41:31;4.18;;;1.52;;
23728;SDS011;12045;60.214;24.724;2023-04-09T08:44:00;3.08;;;1.80;;
23728;SDS011;12045;60.214;24.724;2023-04-09T08:46:27;2.38;;;1.63;;
23728;SDS011;12045;60.214;24.724;2023-04-09T08:48:55;3.58;;;1.70;;
23728;SDS011;12045;60.214;24.724;2023-04-09T08:51:23;2.55;;;1.40;;
23728;SDS011;12045;60.214;24.724;2023-04-09T08:53:54;3.40;;;1.45;;
23728;SDS011;12045;60.214;24.724;2023-04-09T08:56:23;2.85;;;1.40;;
23728;SDS011;12045;60.214;24.724;2023-04-09T08:58:52;3.28;;;1.80;;
23728;SDS011;12045;60.214;24.724;2023-04-09T09:01:21;4.25;;;1.70;;
23728;SDS011;12045;60.214;24.724;2023-04-09T09:04:03;4.40;;;1.83;;
23728;SDS011;12045;60.214;24.724;2023-04-09T09:06:33;2.40;;;1.48;;
23728;SDS011;12045;60.214;24.724;2023-04-09T09:09:11;2.65;;;1.50;;
23728;SDS011;12045;60.214;24.724;2023-04-09T09:11:43;3.25;;;1.65;;
23728;SDS011;12045;60.214;24.724;2023-04-09T09:14:16;2.92;;;1.65;;
23728;SDS011;12045;60.214;24.724;2023-04-09T09:21:59;3.75;;;1.60;;
23728;SDS011;12045;60.214;24.724;2023-04-09T09:24:27;2.00;;;1.60;;
23728;SDS011;12045;60.214;24.724;2023-04-09T09:26:56;2.03;;;1.63;;
23728;SDS011;12045;60.214;24.724;2023-04-09T09:29:24;5.75;;;1.63;;
23728;SDS011;12045;60.214;24.724;2023-04-09T09:31:54;2.72;;;1.83;;
23728;SDS011;12045;60.214;24.724;2023-04-09T09:34:22;6.25;;;2.08;;
23728;SDS011;12045;60.214;24.724;2023-04-09T09:36:51;4.18;;;1.88;;
23728;SDS011;12045;60.214;24.724;2023-04-09T09:39:19;2.65;;;1.77;;
23728;SDS011;12045;60.214;24.724;2023-04-09T09:41:48;6.40;;;1.80;;
23728;SDS011;12045;60.214;24.724;2023-04-09T09:44:33;3.97;;;1.80;;
23728;SDS011;12045;60.214;24.724;2023-04-09T09:47:02;2.97;;;1.77;;
23728;SDS011;12045;60.214;24.724;2023-04-09T09:49:30;3.20;;;1.85;;
23728;SDS011;12045;60.214;24.724;2023-04-09T09:51:58;3.08;;;1.73;;
23728;SDS011;12045;60.214;24.724;2023-04-09T09:54:30;5.68;;;1.80;;
23728;SDS011;12045;60.214;24.724;2023-04-09T09:57:06;3.05;;;1.80;;
23728;SDS011;12045;60.214;24.724;2023-04-09T09:59:36;3.03;;;1.73;;
23728;SDS011;12045;60.214;24.724;2023-04-09T10:02:06;3.30;;;1.52;;
23728;SDS011;12045;60.214;24.724;2023-04-09T10:04:44;3.55;;;1.77;;
23728;SDS011;12045;60.214;24.724;2023-04-09T10:07:14;4.43;;;1.80;;
23728;SDS011;12045;60.214;24.724;2023-04-09T10:09:44;2.25;;;1.60;;
23728;SDS011;12045;60.214;24.724;2023-04-09T10:12:20;3.40;;;1.50;;
23728;SDS011;12045;60.214;24.724;2023-04-09T10:14:51;3.42;;;1.90;;
23728;SDS011;12045;60.214;24.724;2023-04-09T10:17:18;5.57;;;1.83;;
23728;SDS011;12045;60.214;24.724;2023-04-09T10:19:55;5.68;;;1.70;;
23728;SDS011;12045;60.214;24.724;2023-04-09T10:22:47;5.07;;;2.20;;
23728;SDS011;12045;60.214;24.724;2023-04-09T10:25:16;3.35;;;1.83;;
23728;SDS011;12045;60.214;24.724;2023-04-09T10:27:44;5.15;;;2.15;;
23728;SDS011;12045;60.214;24.724;2023-04-09T10:30:34;10.35;;;2.33;;
23728;SDS011;12045;60.214;24.724;2023-04-09T10:35:45;5.63;;;2.00;;
23728;SDS011;12045;60.214;24.724;2023-04-09T10:38:13;5.30;;;2.00;;
23728;SDS011;12045;60.214;24.724;2023-04-09T10:40:48;5.50;;;2.60;;
23728;SDS011;12045;60.214;24.724;2023-04-09T10:43:17;4.40;;;2.13;;
23728;SDS011;12045;60.214;24.724;2023-04-09T10:45:49;5.47;;;1.90;;
23728;SDS011;12045;60.214;24.724;2023-04-09T10:48:20;3.17;;;1.77;;
23728;SDS011;12045;60.214;24.724;2023-04-09T10:50:51;4.82;;;2.10;;
23728;SDS011;12045;60.214;24.724;2023-04-09T10:53:22;4.25;;;1.90;;
23728;SDS011;12045;60.214;24.724;2023-04-09T10:55:51;4.75;;;1.90;;
23728;SDS011;12045;60.214;24.724;2023-04-09T10:58:19;7.22;;;2.05;;
23728;SDS011;12045;60.214;24.724;2023-04-09T11:00:48;4.95;;;1.88;;
23728;SDS011;12045;60.214;24.724;2023-04-09T11:03:18;5.15;;;2.20;;
23728;SDS011;12045;60.214;24.724;2023-04-09T11:05:54;6.70;;;2.15;;
23728;SDS011;12045;60.214;24.724;2023-04-09T11:08:28;8.48;;;2.10;;
23728;SDS011;12045;60.214;24.724;2023-04-09T11:10:59;3.38;;;1.90;;
23728;SDS011;12045;60.214;24.724;2023-04-09T11:13:29;3.00;;;1.73;;
23728;SDS011;12045;60.214;24.724;2023-04-09T11:15:57;3.78;;;2.20;;
23728;SDS011;12045;60.214;24.724;2023-04-09T11:18:27;5.38;;;1.88;;
23728;SDS011;12045;60.214;24.724;2023-04-09T11:20:56;3.58;;;1.90;;
23728;SDS011;12045;60.214;24.724;2023-04-09T11:23:25;4.28;;;1.58;;
23728;SDS011;12045;60.214;24.724;2023-04-09T11:25:53;4.88;;;2.28;;
23728;SDS011;12045;60.214;24.724;2023-04-09T11:28:22;1.98;;;1.52;;
23728;SDS011;12045;60.214;24.724;2023-04-09T11:30:50;4.95;;;1.75;;
23728;SDS011;12045;60.214;24.724;2023-04-09T11:33:18;5.30;;;1.85;;
23728;SDS011;12045;60.214;24.724;2023-04-09T11:35:46;5.40;;;1.70;;
23728;SDS011;12045;60.214;24.724;2023-04-09T11:38:14;7.22;;;1.80;;
23728;SDS011;12045;60.214;24.724;2023-04-09T11:40:42;7.55;;;1.48;;
23728;SDS011;12045;60.214;24.724;2023-04-09T11:43:17;6.30;;;1.65;;
23728;SDS011;12045;60.214;24.724;2023-04-09T11:45:46;3.10;;;1.73;;
23728;SDS011;12045;60.214;24.724;2023-04-09T11:48:15;4.93;;;1.60;;
23728;SDS011;12045;60.214;24.724;2023-04-09T11:50:44;4.32;;;1.73;;
23728;SDS011;12045;60.214;24.724;2023-04-09T11:53:17;4.40;;;1.63;;
23728;SDS011;12045;60.214;24.724;2023-04-09T11:55:48;7.85;;;1.90;;
23728;SDS011;12045;60.214;24.724;2023-04-09T11:58:17;5.03;;;1.85;;
23728;SDS011;12045;60.214;24.724;2023-04-09T12:00:47;7.88;;;1.92;;
23728;SDS011;12045;60.214;24.724;2023-04-09T12:03:18;3.88;;;1.80;;
23728;SDS011;12045;60.214;24.724;2023-04-09T12:05:53;3.97;;;1.60;;
23728;SDS011;12045;60.214;24.724;2023-04-09T12:08:23;7.22;;;2.00;;
23728;SDS011;12045;60.214;24.724;2023-04-09T12:10:51;3.78;;;1.50;;
23728;SDS011;12045;60.214;24.724;2023-04-09T12:13:20;2.45;;;1.45;;
23728;SDS011;12045;60.214;24.724;2023-04-09T12:15:48;3.60;;;1.52;;
23728;SDS011;12045;60.214;24.724;2023-04-09T12:18:16;3.10;;;1.48;;
23728;SDS011;12045;60.214;24.724;2023-04-09T12:20:45;4.55;;;1.75;;
23728;SDS011;12045;60.214;24.724;2023-04-09T12:23:15;2.63;;;1.40;;
23728;SDS011;12045;60.214;24.724;2023-04-09T12:25:43;5.90;;;1.50;;
23728;SDS011;12045;60.214;24.724;2023-04-09T12:28:12;3.40;;;1.80;;
23728;SDS011;12045;60.214;24.724;2023-04-09T12:30:44;3.35;;;1.50;;
23728;SDS011;12045;60.214;24.724;2023-04-09T12:33:12;4.22;;;1.95;;
23728;SDS011;12045;60.214;24.724;2023-04-09T12:35:40;4.03;;;1.83;;
23728;SDS011;12045;60.214;24.724;2023-04-09T12:38:07;5.00;;;1.70;;
23728;SDS011;12045;60.214;24.724;2023-04-09T12:40:35;8.18;;;1.70;;
23728;SDS011;12045;60.214;24.724;2023-04-09T12:43:03;4.82;;;1.95;;
23728;SDS011;12045;60.214;24.724;2023-04-09T12:45:32;6.15;;;1.80;;
23728;SDS011;12045;60.214;24.724;2023-04-09T12:47:59;7.93;;;1.85;;
23728;SDS011;12045;60.214;24.724;2023-04-09T12:50:27;2.65;;;1.75;;
23728;SDS011;12045;60.214;24.724;2023-04-09T12:52:54;8.10;;;1.98;;
23728;SDS011;12045;60.214;24.724;2023-04-09T12:55:22;3.05;;;1.63;;
23728;SDS011;12045;60.214;24.724;2023-04-09T12:57:49;7.22;;;2.13;;
23728;SDS011;12045;60.214;24.724;2023-04-09T13:00:17;6.25;;;1.80;;
23728;SDS011;12045;60.214;24.724;2023-04-09T13:02:45;7.05;;;1.98;;
23728;SDS011;12045;60.214;24.724;2023-04-09T13:05:17;6.45;;;1.88;;
23728;SDS011;12045;60.214;24.724;2023-04-09T13:07:44;7.47;;;2.00;;
23728;SDS011;12045;60.214;24.724;2023-04-09T13:10:12;8.98;;;2.38;;
23728;SDS011;12045;60.214;24.724;2023-04-09T13:12:40;5.03;;;1.80;;
23728;SDS011;12045;60.214;24.724;2023-04-09T13:15:07;9.60;;;2.05;;
23728;SDS011;12045;60.214;24.724;2023-04-09T13:17:35;5.22;;;1.83;;
23728;SDS011;12045;60.214;24.724;2023-04-09T13:20:02;3.03;;;1.63;;
23728;SDS011;12045;60.214;24.724;2023-04-09T13:22:30;4.82;;;1.50;;
23728;SDS011;12045;60.214;24.724;2023-04-09T13:24:58;5.13;;;1.73;;
23728;SDS011;12045;60.214;24.724;2023-04-09T13:27:25;5.03;;;1.65;;
23728;SDS011;12045;60.214;24.724;2023-04-09T13:29:55;6.15;;;1.63;;
23728;SDS011;12045;60.214;24.724;2023-04-09T13:32:23;5.32;;;1.77;;
23728;SDS011;12045;60.214;24.724;2023-04-09T13:34:50;4.72;;;1.80;;
23728;SDS011;12045;60.214;24.724;2023-04-09T13:37:19;5.20;;;1.70;;
23728;SDS011;12045;60.214;24.724;2023-04-09T13:39:48;4.22;;;1.90;;
23728;SDS011;12045;60.214;24.724;2023-04-09T13:42:16;3.78;;;1.80;;
23728;SDS011;12045;60.214;24.724;2023-04-09T13:44:44;5.40;;;1.73;;
23728;SDS011;12045;60.214;24.724;2023-04-09T13:47:11;5.55;;;1.70;;
23728;SDS011;12045;60.214;24.724;2023-04-09T13:49:39;6.07;;;1.90;;
23728;SDS011;12045;60.214;24.724;2023-04-09T13:52:08;3.42;;;1.63;;
23728;SDS011;12045;60.214;24.724;2023-04-09T13:54:36;4.55;;;1.73;;
23728;SDS011;12045;60.214;24.724;2023-04-09T13:57:03;4.80;;;1.73;;
23728;SDS011;12045;60.214;24.724;2023-04-09T13:59:31;6.25;;;1.70;;
23728;SDS011;12045;60.214;24.724;2023-04-09T14:01:58;6.57;;;2.45;;
23728;SDS011;12045;60.214;24.724;2023-04-09T14:04:26;2.35;;;1.63;;
23728;SDS011;12045;60.214;24.724;2023-04-09T14:06:54;4.43;;;1.60;;
23728;SDS011;12045;60.214;24.724;2023-04-09T14:09:22;3.53;;;1.67;;
23728;SDS011;12045;60.214;24.724;2023-04-09T14:11:50;4.47;;;1.63;;
23728;SDS011;12045;60.214;24.724;2023-04-09T14:14:17;3.80;;;1.45;;
23728;SDS011;12045;60.214;24.724;2023-04-09T14:16:45;6.25;;;1.45;;
23728;SDS011;12045;60.214;24.724;2023-04-09T14:19:14;5.70;;;1.77;;
23728;SDS011;12045;60.214;24.724;2023-04-09T14:21:41;4.80;;;1.65;;
23728;SDS011;12045;60.214;24.724;2023-04-09T14:24:09;5.72;;;1.80;;
23728;SDS011;12045;60.214;24.724;2023-04-09T14:26:36;4.57;;;1.48;;
23728;SDS011;12045;60.214;24.724;2023-04-09T14:29:04;4.88;;;1.35;;
23728;SDS011;12045;60.214;24.724;2023-04-09T14:31:31;8.50;;;1.88;;
23728;SDS011;12045;60.214;24.724;2023-04-09T14:33:58;4.35;;;1.60;;
23728;SDS011;12045;60.214;24.724;2023-04-09T14:36:26;4.93;;;1.63;;
23728;SDS011;12045;60.214;24.724;2023-04-09T14:38:53;5.95;;;1.65;;
23728;SDS011;12045;60.214;24.724;2023-04-09T14:41:23;10.05;;;2.00;;
23728;SDS011;12045;60.214;24.724;2023-04-09T14:43:51;3.58;;;1.40;;
23728;SDS011;12045;60.214;24.724;2023-04-09T14:46:19;3.65;;;1.80;;
23728;SDS011;12045;60.214;24.724;2023-04-09T14:48:47;6.93;;;1.98;;
23728;SDS011;12045;60.214;24.724;2023-04-09T14:51:15;4.20;;;1.52;;
23728;SDS011;12045;60.214;24.724;2023-04-09T14:53:43;6.68;;;1.90;;
23728;SDS011;12045;60.214;24.724;2023-04-09T14:56:10;3.78;;;1.58;;